Terminal Aerodrome Forecast
Issued by NWS

Home | Current Version | Previous Version | Text Only | Print | Product List | Glossary On
Versions: 1 2 3 4 5 6 7 8 9 10 11 12 13 14
000
FTUS45 KABQ 260538
TAFROW
TAF
KROW 260538Z 2606/2706 04015KT P6SM VCTS SCT080CB BKN120
      TEMPO 2606/2609 VRB15G25KT 5SM SHRA BKN070
     FM260900 03010KT P6SM -SHRA BKN070
     FM261300 VRB05KT P6SM SCT070 BKN120
     FM261600 05007KT P6SM SCT120
     FM262100 12007KT P6SM VCSH SCT090 BKN150
     FM262300 32011KT P6SM VCTS SCT070CB BKN120
     FM270100 14008KT P6SM VCSH BKN100=

USA.gov is the U.S. government's official web portal to all federal, state and local government web resources and services.